Time;durP1;ratioP1;P1;durP2;ratioP2;P2;SDS_P1;SDS_P2;PMS_P1;PMS_P2;Temp;Humidity;BMP_temperature;BMP_pressure;BME280_temperature;BME280_humidity;BME280_pressure;Samples;Min_cycle;Max_cycle;Signal;HPM_P1;HPM_P2
2021/07/13 00:00:42;;;;;;;6.25;5.30;;;;;;;20.93;82.21;100514.44;1760404;81;21205;-57
2021/07/13 00:03:48;;;;;;;6.58;5.80;;;;;;;20.91;82.29;100510.50;1760530;81;21245;-57
2021/07/13 00:06:57;;;;;;;8.05;5.92;;;;;;;20.86;82.26;100507.59;1760204;81;21359;-58
2021/07/13 00:10:03;;;;;;;7.83;5.72;;;;;;;20.82;82.41;100511.92;1760696;81;21236;-58
2021/07/13 00:13:09;;;;;;;7.62;5.65;;;;;;;20.82;82.60;100518.05;1759959;81;21300;-59
2021/07/13 00:16:15;;;;;;;6.87;5.78;;;;;;;20.82;82.71;100520.83;1741041;81;21525;-58
2021/07/13 00:19:20;;;;;;;7.47;5.97;;;;;;;20.81;82.65;100514.41;1760296;81;21925;-58
2021/07/13 00:22:27;;;;;;;7.60;5.75;;;;;;;20.78;82.81;100515.75;1760524;81;21198;-58
2021/07/13 00:25:33;;;;;;;7.30;5.85;;;;;;;20.77;82.98;100518.77;1760338;81;21359;-57
2021/07/13 00:28:40;;;;;;;8.48;5.85;;;;;;;20.78;83.08;100519.92;1760548;81;21382;-58
2021/07/13 00:31:46;;;;;;;7.25;5.70;;;;;;;20.76;83.21;100525.41;1759335;80;21761;-58
2021/07/13 00:34:53;;;;;;;8.73;6.60;;;;;;;20.76;83.43;100529.58;1760603;81;21336;-59
2021/07/13 00:37:59;;;;;;;8.73;6.85;;;;;;;20.80;83.66;100528.86;1760614;81;21284;-57
2021/07/13 00:41:04;;;;;;;7.15;6.28;;;;;;;20.84;83.75;100537.58;1760435;81;21347;-59
2021/07/13 00:44:11;;;;;;;8.35;6.28;;;;;;;20.88;83.78;100535.18;1760602;81;21221;-58
2021/07/13 00:47:19;;;;;;;11.10;7.87;;;;;;;20.91;83.74;100534.16;1744732;81;21355;-58
2021/07/13 00:50:27;;;;;;;7.55;6.80;;;;;;;20.86;83.63;100540.98;1759985;81;21615;-58
2021/07/13 00:53:34;;;;;;;11.45;7.42;;;;;;;20.86;83.85;100546.55;1760336;81;21367;-58
2021/07/13 00:56:40;;;;;;;8.65;6.75;;;;;;;20.87;83.92;100548.23;1760598;81;21395;-58
2021/07/13 00:59:44;;;;;;;10.68;7.33;;;;;;;20.87;84.17;100546.84;1744620;81;21355;-58
2021/07/13 01:02:52;;;;;;;8.43;6.47;;;;;;;20.88;84.23;100552.73;1760641;81;21229;-57
2021/07/13 01:05:57;;;;;;;8.00;6.78;;;;;;;20.89;84.16;100560.52;1760506;81;21253;-58
2021/07/13 01:09:12;;;;;;;8.80;6.62;;;;;;;20.83;83.96;100557.59;1760589;81;21351;-57
2021/07/13 01:12:28;;;;;;;10.10;7.42;;;;;;;20.80;84.06;100564.21;1760558;81;21757;-57
2021/07/13 01:15:34;;;;;;;8.18;7.33;;;;;;;20.78;84.14;100563.59;1760565;81;21198;-57
2021/07/13 01:18:47;;;;;;;10.98;7.95;;;;;;;20.76;84.32;100570.78;1760519;81;21177;-58
2021/07/13 01:22:08;;;;;;;10.63;8.33;;;;;;;20.76;84.51;100572.17;1760548;81;21324;-58
2021/07/13 01:25:34;;;;;;;9.78;7.58;;;;;;;20.76;84.69;100578.27;1760503;81;21587;-58
2021/07/13 01:28:49;;;;;;;14.25;8.35;;;;;;;20.77;84.73;100577.20;1760500;81;21371;-58
2021/07/13 01:31:54;;;;;;;10.80;8.25;;;;;;;20.77;84.87;100588.34;1758593;80;21410;-58
2021/07/13 01:35:09;;;;;;;10.30;9.05;;;;;;;20.76;84.96;100585.23;1744731;81;21398;-59
2021/07/13 01:38:15;;;;;;;11.85;8.73;;;;;;;20.74;84.93;100595.20;1760483;81;21402;-58
2021/07/13 01:41:31;;;;;;;13.78;9.18;;;;;;;20.71;84.88;100604.56;1760272;81;21272;-59
2021/07/13 01:44:37;;;;;;;12.73;8.90;;;;;;;20.66;84.92;100605.84;1760758;81;21351;-58
2021/07/13 01:47:44;;;;;;;9.95;8.68;;;;;;;20.61;85.11;100609.30;1744129;81;21261;-58
2021/07/13 01:50:51;;;;;;;12.70;8.95;;;;;;;20.57;85.34;100605.84;1744551;81;21202;-58
2021/07/13 01:53:58;;;;;;;12.28;8.50;;;;;;;20.54;85.50;100604.92;1744691;81;21209;-58
2021/07/13 01:57:05;;;;;;;10.82;8.70;;;;;;;20.55;85.80;100604.69;1744580;81;21198;-58
2021/07/13 02:00:14;;;;;;;9.68;8.68;;;;;;;20.55;85.73;100610.81;1760243;81;21351;-59
2021/07/13 02:03:20;;;;;;;11.28;9.55;;;;;;;20.55;85.99;100614.98;1760494;81;21428;-60
2021/07/13 02:06:28;;;;;;;10.25;8.28;;;;;;;20.54;85.88;100616.05;1760417;81;21962;-58
2021/07/13 02:09:34;;;;;;;11.43;8.88;;;;;;;20.53;85.97;100614.36;1760761;81;21328;-58
2021/07/13 02:12:45;;;;;;;11.35;8.83;;;;;;;20.55;86.04;100623.34;1760175;81;21221;-58
2021/07/13 02:15:51;;;;;;;10.38;8.38;;;;;;;20.52;86.08;100625.16;1760575;81;21844;-58
2021/07/13 02:18:57;;;;;;;10.48;8.18;;;;;;;20.53;86.38;100626.31;1760439;81;21217;-59
2021/07/13 02:22:07;;;;;;;10.82;8.68;;;;;;;20.56;86.42;100620.84;1760518;81;21241;-59
2021/07/13 02:25:14;;;;;;;12.33;8.95;;;;;;;20.56;86.27;100625.88;1760513;81;21395;-58
2021/07/13 02:28:45;;;;;;;12.13;9.45;;;;;;;20.58;86.09;100622.86;1725195;81;21391;-58
2021/07/13 02:31:54;;;;;;;12.82;9.10;;;;;;;20.56;85.85;100620.31;1760474;81;21982;-58
2021/07/13 02:35:01;;;;;;;11.70;8.73;;;;;;;20.55;85.86;100617.77;1775684;80;21382;-58
2021/07/13 02:38:08;;;;;;;9.55;8.55;;;;;;;20.53;85.92;100615.19;1778345;80;21386;-57
2021/07/13 02:41:12;;;;;;;13.55;9.15;;;;;;;20.55;86.05;100617.77;1778077;80;21204;-58
2021/07/13 02:44:19;;;;;;;13.58;9.20;;;;;;;20.58;86.42;100624.25;1760079;80;21296;-57
2021/07/13 02:47:24;;;;;;;13.72;9.55;;;;;;;20.65;86.78;100621.67;1778518;80;21263;-57
2021/07/13 02:50:30;;;;;;;15.48;10.90;;;;;;;20.70;86.87;100627.39;1777854;80;21717;-58
2021/07/13 02:53:35;;;;;;;14.13;12.37;;;;;;;20.73;86.97;100624.13;1743832;82;21785;-58
2021/07/13 02:56:43;;;;;;;16.17;11.75;;;;;;;20.78;86.94;100637.33;1743730;82;21346;-58
2021/07/13 02:59:49;;;;;;;15.50;11.45;;;;;;;20.82;86.87;100624.63;1743902;82;21721;-57
2021/07/13 03:02:55;;;;;;;17.90;10.68;;;;;;;20.84;86.82;100633.59;1743757;82;21476;-59
2021/07/13 03:06:01;;;;;;;13.08;10.50;;;;;;;20.86;86.85;100643.96;1743815;82;21264;-59
2021/07/13 03:09:06;;;;;;;13.40;10.60;;;;;;;20.89;87.02;100633.74;1743786;82;21592;-60
2021/07/13 03:12:16;;;;;;;16.55;11.18;;;;;;;20.92;86.81;100634.66;1724994;82;21242;-59
2021/07/13 03:15:26;;;;;;;17.85;11.83;;;;;;;20.95;86.88;100638.92;1743811;82;21925;-59
2021/07/13 03:18:31;;;;;;;15.83;11.40;;;;;;;21.04;86.94;100636.13;1727000;82;21244;-59
2021/07/13 03:21:40;;;;;;;16.32;12.33;;;;;;;21.15;86.78;100642.27;1743792;82;21820;-60
2021/07/13 03:24:46;;;;;;;13.22;11.53;;;;;;;21.23;86.46;100647.50;1743918;82;21363;-61
2021/07/13 03:27:51;;;;;;;16.15;12.25;;;;;;;21.28;86.11;100647.07;1743708;82;21407;-61
2021/07/13 03:30:56;;;;;;;17.67;12.07;;;;;;;21.33;85.78;100648.60;1743846;82;21284;-60
2021/07/13 03:34:04;;;;;;;14.30;12.25;;;;;;;21.39;85.60;100659.34;1726401;79;21268;-60
2021/07/13 03:37:10;;;;;;;16.32;11.40;;;;;;;21.46;85.45;100660.92;1758165;81;21352;-60
2021/07/13 03:40:17;;;;;;;15.45;12.03;;;;;;;21.52;85.12;100652.99;1711420;84;21358;-61
2021/07/13 03:43:23;;;;;;;14.68;11.68;;;;;;;21.58;84.80;100655.38;1699363;84;21263;-60
2021/07/13 03:46:30;;;;;;;14.13;11.88;;;;;;;21.62;84.53;100650.47;1699249;84;21233;-61
2021/07/13 03:49:37;;;;;;;18.25;12.40;;;;;;;21.67;84.30;100649.20;1758074;81;21615;-61
2021/07/13 03:52:43;;;;;;;15.95;11.88;;;;;;;21.70;84.26;100654.30;1711818;84;21252;-59
2021/07/13 03:55:51;;;;;;;15.48;11.95;;;;;;;21.78;84.45;100653.11;1699333;84;21268;-59
2021/07/13 03:58:57;;;;;;;13.60;10.90;;;;;;;21.88;84.49;100651.41;1699265;84;21234;-60
2021/07/13 04:02:03;;;;;;;16.70;12.13;;;;;;;22.01;84.31;100657.27;1699327;84;21221;-60
2021/07/13 04:05:13;;;;;;;17.05;11.60;;;;;;;22.12;83.97;100654.48;1757922;81;21344;-60
2021/07/13 04:08:18;;;;;;;15.90;11.28;;;;;;;22.20;83.48;100654.64;1695088;84;21229;-60
2021/07/13 04:11:24;;;;;;;12.58;10.70;;;;;;;22.31;83.32;100662.72;1698755;84;21269;-60
2021/07/13 04:14:31;;;;;;;13.83;10.78;;;;;;;22.42;83.03;100656.26;1758205;81;21201;-60
2021/07/13 04:17:36;;;;;;;13.10;11.05;;;;;;;22.52;82.42;100660.67;1711825;83;21382;-60
2021/07/13 04:20:42;;;;;;;13.00;11.35;;;;;;;22.65;82.07;100661.80;1758437;81;21351;-61
2021/07/13 04:23:48;;;;;;;14.78;11.03;;;;;;;22.76;81.70;100661.77;1710014;84;21331;-60
2021/07/13 04:26:55;;;;;;;13.13;10.38;;;;;;;22.86;81.25;100666.70;1699264;84;21214;-61
2021/07/13 04:30:00;;;;;;;11.90;10.70;;;;;;;22.95;80.79;100673.58;1699277;84;21241;-62
2021/07/13 04:33:05;;;;;;;13.72;10.68;;;;;;;23.06;80.57;100671.28;1699635;84;21224;-61
2021/07/13 04:36:11;;;;;;;12.20;10.50;;;;;;;23.15;80.29;100674.81;1757985;80;21293;-60
2021/07/13 04:39:16;;;;;;;13.00;10.70;;;;;;;23.25;79.96;100668.56;1711630;84;21246;-62
2021/07/13 04:42:22;;;;;;;16.55;10.50;;;;;;;23.36;79.68;100676.06;1757350;81;21352;-61
2021/07/13 04:45:27;;;;;;;12.50;10.72;;;;;;;23.45;79.28;100673.17;1704764;81;21230;-61
2021/07/13 04:48:32;;;;;;;15.63;11.60;;;;;;;23.55;78.78;100669.14;1737211;82;21463;-60
2021/07/13 04:51:38;;;;;;;11.10;10.05;;;;;;;23.67;78.34;100676.91;1736791;82;21183;-61
2021/07/13 04:54:48;;;;;;;13.62;10.60;;;;;;;23.77;77.74;100675.66;1758168;79;21373;-61
2021/07/13 04:57:52;;;;;;;16.45;10.30;;;;;;;23.88;77.18;100674.72;1736197;82;21262;-61
2021/07/13 05:00:58;;;;;;;13.80;10.48;;;;;;;23.98;76.46;100679.66;1746845;81;21247;-62
2021/07/13 05:04:07;;;;;;;11.65;10.45;;;;;;;24.07;75.65;100683.16;1738710;81;21244;-62
2021/07/13 05:07:16;;;;;;;13.90;11.08;;;;;;;24.17;74.94;100684.73;1754029;81;21174;-63
2021/07/13 05:10:24;;;;;;;18.60;10.60;;;;;;;24.26;74.30;100678.97;1753941;81;21217;-61
2021/07/13 05:13:30;;;;;;;11.48;10.23;;;;;;;24.35;73.62;100680.25;1738313;80;21196;-61
2021/07/13 05:16:38;;;;;;;12.80;10.60;;;;;;;24.46;73.28;100686.81;1735652;82;21714;-57
2021/07/13 05:19:48;;;;;;;11.53;10.43;;;;;;;24.54;72.78;100690.03;1745962;81;21732;-57
2021/07/13 05:23:06;;;;;;;12.55;10.63;;;;;;;24.63;72.58;100687.06;1758430;81;21223;-57
2021/07/13 05:26:08;;;;;;;11.43;10.03;;;;;;;24.72;71.93;100691.12;1739527;81;21181;-57
2021/07/13 05:29:15;;;;;;;13.43;10.15;;;;;;;24.79;71.10;100695.98;1736319;82;21197;-58
2021/07/13 05:32:21;;;;;;;13.05;10.25;;;;;;;24.88;70.29;100702.80;1736102;82;21294;-57
2021/07/13 05:35:30;;;;;;;12.50;9.80;;;;;;;24.95;69.47;100707.67;1735649;82;21418;-56
2021/07/13 05:38:44;;;;;;;10.68;9.05;;;;;;;25.03;68.55;100703.55;1765085;79;21308;-57
2021/07/13 05:41:50;;;;;;;11.18;10.05;;;;;;;25.10;67.69;100712.61;1765228;81;21212;-59
2021/07/13 05:44:57;;;;;;;13.50;10.43;;;;;;;25.21;67.10;100714.96;1765267;81;21220;-58
2021/07/13 05:48:02;;;;;;;14.45;9.63;;;;;;;25.29;66.66;100714.49;1765641;81;21780;-58
2021/07/13 05:51:08;;;;;;;11.30;9.13;;;;;;;25.36;65.42;100710.39;1765626;81;21213;-57
2021/07/13 05:54:14;;;;;;;11.20;9.60;;;;;;;25.43;64.56;100714.39;1742527;81;21268;-56
2021/07/13 05:57:21;;;;;;;13.25;9.50;;;;;;;25.48;63.53;100711.64;1774568;79;21323;-56
2021/07/13 06:00:26;;;;;;;11.75;9.80;;;;;;;25.54;63.63;100713.38;1802310;79;21307;-56
2021/07/13 06:03:32;;;;;;;14.60;10.10;;;;;;;25.62;63.97;100715.16;1787041;79;21220;-56
2021/07/13 06:06:38;;;;;;;13.60;9.83;;;;;;;25.71;64.30;100714.09;1803368;79;21382;-56
2021/07/13 06:09:46;;;;;;;12.37;9.65;;;;;;;25.80;64.51;100716.14;1802709;79;21181;-56
2021/07/13 06:12:51;;;;;;;12.03;10.30;;;;;;;25.89;64.53;100717.36;1784720;79;21585;-57
2021/07/13 06:15:58;;;;;;;15.15;9.75;;;;;;;25.97;64.06;100714.61;1802763;79;21322;-56
2021/07/13 06:19:04;;;;;;;12.73;10.55;;;;;;;26.03;64.00;100713.02;1803125;79;21331;-56
2021/07/13 06:22:10;;;;;;;12.20;10.40;;;;;;;26.10;63.94;100718.40;1803618;79;21410;-55
2021/07/13 06:25:18;;;;;;;11.85;10.43;;;;;;;26.17;63.93;100719.85;1787377;79;21398;-56
2021/07/13 06:28:29;;;;;;;11.57;9.55;;;;;;;26.25;63.64;100710.07;1799256;79;21399;-55
2021/07/13 06:31:39;;;;;;;17.17;12.95;;;;;;;26.33;63.40;100712.38;1750886;80;21203;-56
2021/07/13 06:34:46;;;;;;;13.15;10.82;;;;;;;26.39;63.33;100707.06;1793276;79;21875;-55
2021/07/13 06:37:53;;;;;;;11.50;10.30;;;;;;;26.45;62.63;100712.45;1799181;79;21927;-55
2021/07/13 06:41:03;;;;;;;12.98;9.33;;;;;;;26.53;62.81;100720.09;1803799;79;21665;-55
2021/07/13 06:44:10;;;;;;;16.55;10.40;;;;;;;26.57;62.36;100711.39;1803709;79;21347;-56
2021/07/13 06:47:17;;;;;;;11.18;9.83;;;;;;;26.62;61.42;100715.63;1800992;79;21367;-57
2021/07/13 06:50:24;;;;;;;15.70;9.88;;;;;;;26.66;61.78;100710.63;1768593;80;21410;-55
2021/07/13 06:53:30;;;;;;;13.75;10.75;;;;;;;26.72;61.12;100710.11;1769414;79;21288;-56
2021/07/13 06:56:40;;;;;;;15.13;10.68;;;;;;;26.76;61.13;100697.19;1777489;79;22163;-55
2021/07/13 06:59:48;;;;;;;14.23;9.40;;;;;;;26.84;61.18;100706.50;1802955;79;21722;-56
2021/07/13 07:02:56;;;;;;;10.70;8.35;;;;;;;26.92;60.68;100703.16;1734182;82;21212;-56
2021/07/13 07:06:02;;;;;;;11.00;8.40;;;;;;;26.99;60.10;100704.59;1802990;79;21753;-56
2021/07/13 07:09:09;;;;;;;9.30;8.38;;;;;;;27.07;59.84;100705.45;1734036;82;21220;-57
2021/07/13 07:12:14;;;;;;;14.28;9.00;;;;;;;27.15;58.52;100707.73;1802114;79;21303;-57
2021/07/13 07:15:20;;;;;;;10.50;8.80;;;;;;;27.18;57.44;100706.36;1784651;79;21844;-58
2021/07/13 07:18:25;;;;;;;10.20;9.10;;;;;;;27.18;57.01;100704.37;1802978;79;21205;-57
2021/07/13 07:21:33;;;;;;;11.10;9.28;;;;;;;27.23;57.93;100705.79;1802743;79;21717;-58
2021/07/13 07:24:42;;;;;;;11.45;8.83;;;;;;;27.29;57.73;100706.70;1789773;79;21490;-57
2021/07/13 07:27:50;;;;;;;11.22;8.73;;;;;;;27.35;57.35;100705.00;1734669;82;21796;-57
2021/07/13 07:30:57;;;;;;;9.88;8.85;;;;;;;27.40;57.57;100709.81;1775630;79;21237;-58
2021/07/13 07:34:05;;;;;;;11.80;9.13;;;;;;;27.47;57.28;100709.81;1801182;79;21879;-58
2021/07/13 07:37:11;;;;;;;16.30;11.55;;;;;;;27.52;56.71;100707.02;1802951;79;21393;-57
2021/07/13 07:40:19;;;;;;;12.13;9.35;;;;;;;27.57;57.10;100704.22;1767109;80;21753;-56
2021/07/13 07:43:25;;;;;;;12.43;9.90;;;;;;;27.64;57.06;100706.73;1767782;80;21182;-57
2021/07/13 07:46:31;;;;;;;11.65;9.45;;;;;;;27.69;57.62;100709.00;1768560;81;21232;-58
2021/07/13 07:49:38;;;;;;;13.62;9.70;;;;;;;27.73;57.13;100700.84;1768018;81;21194;-57
2021/07/13 07:52:44;;;;;;;12.30;9.93;;;;;;;27.77;56.68;100703.37;1773905;79;21192;-57
2021/07/13 07:55:51;;;;;;;18.35;9.33;;;;;;;27.81;56.77;100706.73;1777765;79;21193;-57
2021/07/13 07:58:59;;;;;;;10.50;8.53;;;;;;;27.87;57.04;100706.19;1784198;79;21398;-58
2021/07/13 08:02:05;;;;;;;10.55;8.63;;;;;;;27.91;56.86;100703.70;1774067;79;21863;-57
2021/07/13 08:05:14;;;;;;;9.90;8.65;;;;;;;27.93;55.89;100697.20;1801454;79;21804;-57
2021/07/13 08:08:20;;;;;;;10.48;9.38;;;;;;;27.95;56.38;100702.84;1801777;79;21617;-58
2021/07/13 08:11:27;;;;;;;9.85;8.85;;;;;;;28.01;56.65;100699.45;1782882;79;21760;-59
2021/07/13 08:14:34;;;;;;;11.05;8.25;;;;;;;28.10;57.43;100709.86;1798552;79;21201;-58
2021/07/13 08:17:42;;;;;;;12.70;9.15;;;;;;;28.16;56.57;100705.94;1799111;79;21452;-58
2021/07/13 08:20:47;;;;;;;11.68;8.70;;;;;;;28.20;55.25;100705.63;1791321;79;21201;-57
2021/07/13 08:23:58;;;;;;;10.32;8.30;;;;;;;28.24;55.33;100703.92;1771715;79;21208;-57
2021/07/13 08:27:03;;;;;;;10.10;8.98;;;;;;;28.31;55.69;100696.59;1741755;81;21185;-56
2021/07/13 08:30:09;;;;;;;9.68;8.60;;;;;;;28.39;56.28;100696.02;1726934;82;21208;-57
2021/07/13 08:33:16;;;;;;;9.60;8.60;;;;;;;28.46;55.03;100693.20;1718079;82;21260;-56
2021/07/13 08:36:24;;;;;;;10.75;9.60;;;;;;;28.53;55.38;100692.34;1728323;82;21181;-56
2021/07/13 08:39:29;;;;;;;10.32;8.15;;;;;;;28.62;56.08;100685.57;1800371;79;21205;-58
2021/07/13 08:42:37;;;;;;;10.72;8.18;;;;;;;28.70;55.36;100683.57;1760181;80;21201;-56
2021/07/13 08:45:43;;;;;;;12.23;8.70;;;;;;;28.78;54.45;100684.39;1694963;81;21226;-58
2021/07/13 08:48:51;;;;;;;10.45;8.50;;;;;;;28.84;53.60;100689.69;1733711;82;21248;-58
2021/07/13 08:52:00;;;;;;;9.58;7.95;;;;;;;28.92;54.77;100682.62;1797983;80;21208;-56
2021/07/13 08:55:06;;;;;;;11.63;8.10;;;;;;;29.00;54.13;100677.20;1786656;80;21244;-56
2021/07/13 08:58:14;;;;;;;10.18;8.18;;;;;;;29.05;54.12;100674.37;1766451;80;21709;-57
2021/07/13 09:01:20;;;;;;;12.68;8.18;;;;;;;29.15;53.56;100673.50;1766987;80;21213;-57
2021/07/13 09:04:41;;;;;;;9.45;8.10;;;;;;;29.22;53.28;100681.91;1787279;80;21209;-56
2021/07/13 09:07:47;;;;;;;11.10;8.05;;;;;;;29.30;52.92;100682.45;1797600;80;21732;-56
2021/07/13 09:11:13;;;;;;;10.60;7.85;;;;;;;29.38;53.66;100679.00;1798191;79;21173;-58
2021/07/13 09:14:22;;;;;;;14.63;8.00;;;;;;;29.49;52.86;100680.06;1761186;80;21221;-56
2021/07/13 09:17:44;;;;;;;12.75;7.58;;;;;;;29.60;52.66;100692.96;1759239;81;21430;-56
2021/07/13 09:20:52;;;;;;;14.58;7.65;;;;;;;29.72;52.58;100679.89;1694006;84;21373;-56
2021/07/13 09:24:20;;;;;;;10.75;8.45;;;;;;;29.83;51.82;100680.94;1702827;84;21295;-56
2021/07/13 09:27:28;;;;;;;11.80;8.45;;;;;;;29.91;50.85;100678.89;1759730;81;21979;-57
2021/07/13 09:30:37;;;;;;;8.75;7.85;;;;;;;30.00;51.19;100682.75;1693695;84;21206;-58
2021/07/13 09:33:42;;;;;;;12.98;7.72;;;;;;;30.09;50.48;100675.34;1716976;82;21216;-58
2021/07/13 09:36:59;;;;;;;14.55;6.90;;;;;;;30.18;49.74;100673.55;1758989;81;21205;-55
2021/07/13 09:40:14;;;;;;;12.37;7.42;;;;;;;30.31;49.44;100663.00;1798138;80;21232;-55
2021/07/13 09:43:20;;;;;;;11.15;7.03;;;;;;;30.31;49.44;100663.00;1801711;79;21200;-55
2021/07/13 09:46:37;;;;;;;10.32;7.30;;;;;;;30.41;49.41;100668.52;1786697;79;21363;-56
2021/07/13 09:49:48;;;;;;;9.55;7.80;;;;;;;30.48;48.99;100666.75;1802607;79;21217;-56
2021/07/13 09:52:58;;;;;;;9.35;7.17;;;;;;;30.58;49.81;100660.43;1803909;79;22021;-57
2021/07/13 09:56:04;;;;;;;9.33;7.35;;;;;;;30.58;49.81;100660.43;1802992;79;21338;-55
2021/07/13 09:59:11;;;;;;;9.40;7.00;;;;;;;30.70;48.87;100667.64;1778033;79;21562;-57
2021/07/13 10:02:19;;;;;;;9.83;7.15;;;;;;;30.78;48.01;100659.34;1768751;80;21817;-56
2021/07/13 10:05:30;;;;;;;7.80;7.03;;;;;;;30.89;48.18;100658.66;1768332;80;21328;-57
2021/07/13 10:08:36;;;;;;;9.90;7.03;;;;;;;30.98;47.14;100663.90;1768783;80;21899;-57
2021/07/13 10:11:44;;;;;;;9.38;7.10;;;;;;;31.06;47.10;100669.73;1783823;79;21252;-56
2021/07/13 10:14:56;;;;;;;8.33;6.70;;;;;;;31.15;47.71;100665.63;1769833;79;21789;-58
2021/07/13 10:18:05;;;;;;;8.70;6.80;;;;;;;31.27;47.16;100668.88;1792574;79;21320;-57
2021/07/13 10:21:14;;;;;;;9.18;7.30;;;;;;;31.38;47.27;100667.60;1794636;79;21169;-56
2021/07/13 10:24:24;;;;;;;10.03;7.15;;;;;;;31.47;47.08;100668.58;1802378;79;21220;-58
2021/07/13 10:27:44;;;;;;;12.13;7.75;;;;;;;31.57;46.10;100665.61;1801253;79;21496;-57
2021/07/13 10:30:56;;;;;;;9.33;7.53;;;;;;;31.64;46.14;100665.47;1799957;79;21343;-58
2021/07/13 10:34:01;;;;;;;8.23;7.42;;;;;;;31.70;46.44;100661.97;1802894;79;21347;-58
2021/07/13 10:37:34;;;;;;;11.33;7.30;;;;;;;31.78;46.00;100657.87;1775923;79;21172;-56
2021/07/13 10:40:45;;;;;;;7.60;6.80;;;;;;;31.90;45.58;100658.24;1782431;79;21659;-58
2021/07/13 10:43:55;;;;;;;10.43;7.28;;;;;;;32.00;44.55;100660.05;1742195;79;21355;-58
2021/07/13 10:47:35;;;;;;;9.35;7.40;;;;;;;32.09;44.61;100666.70;1729779;83;21348;-57
2021/07/13 10:50:49;;;;;;;11.28;7.50;;;;;;;32.19;44.23;100669.34;1729968;83;21351;-57
2021/07/13 10:53:55;;;;;;;9.55;7.72;;;;;;;32.29;43.98;100662.07;1729414;83;21367;-58
2021/07/13 10:57:02;;;;;;;10.98;7.33;;;;;;;32.38;43.73;100651.71;1727843;81;21781;-58
2021/07/13 11:00:08;;;;;;;10.28;6.87;;;;;;;32.45;44.44;100656.41;1670350;85;21789;-56
2021/07/13 11:03:15;;;;;;;12.63;6.85;;;;;;;32.55;44.02;100656.78;1672687;84;21285;-54
2021/07/13 11:06:26;;;;;;;14.58;6.97;;;;;;;32.63;43.80;100652.64;1755041;81;21233;-57
2021/07/13 11:09:37;;;;;;;7.47;6.65;;;;;;;32.69;43.65;100648.54;1748462;81;21394;-57
2021/07/13 11:12:42;;;;;;;11.48;6.50;;;;;;;32.78;42.49;100648.62;1718552;83;21714;-56
2021/07/13 11:15:56;;;;;;;6.95;5.80;;;;;;;32.88;41.99;100643.63;1754952;81;21618;-56
2021/07/13 11:19:04;;;;;;;9.20;6.30;;;;;;;32.91;41.12;100640.14;1718950;83;21739;-56
2021/07/13 11:22:10;;;;;;;11.57;6.70;;;;;;;32.98;42.38;100637.70;1739311;81;21245;-56
2021/07/13 11:25:31;;;;;;;8.68;6.35;;;;;;;33.12;42.23;100640.53;1735927;82;21193;-56
2021/07/13 11:29:00;;;;;;;9.25;5.70;;;;;;;33.26;40.73;100637.92;1742770;81;21371;-55
2021/07/13 11:32:11;;;;;;;9.00;5.53;;;;;;;33.41;40.60;100637.33;1730168;82;21456;-56
2021/07/13 11:35:23;;;;;;;6.75;5.35;;;;;;;33.55;41.33;100638.95;1741229;81;21383;-56
2021/07/13 11:38:37;;;;;;;10.70;7.92;;;;;;;33.65;40.69;100643.55;1681938;83;21747;-57
2021/07/13 11:41:44;;;;;;;12.20;5.90;;;;;;;33.74;39.94;100638.76;1750376;81;21374;-56
2021/07/13 11:44:52;;;;;;;10.18;6.12;;;;;;;33.84;39.93;100632.83;1762365;79;21198;-57
2021/07/13 11:48:07;;;;;;;8.58;5.65;;;;;;;33.90;40.30;100645.19;1794065;79;21351;-56
2021/07/13 11:51:13;;;;;;;8.83;5.87;;;;;;;33.95;40.64;100634.27;1778782;79;21347;-56
2021/07/13 11:54:22;;;;;;;9.85;5.85;;;;;;;33.97;39.29;100635.61;1771690;81;21742;-55
2021/07/13 11:57:27;;;;;;;9.63;6.10;;;;;;;34.01;39.33;100627.28;1777256;79;21283;-55
2021/07/13 12:00:35;;;;;;;8.58;5.72;;;;;;;34.09;40.80;100627.91;1771456;81;21281;-55
2021/07/13 12:03:40;;;;;;;8.78;5.97;;;;;;;34.19;40.35;100630.49;1771146;81;21271;-56
2021/07/13 12:06:49;;;;;;;9.63;5.78;;;;;;;34.25;40.02;100626.34;1775356;79;21343;-55
2021/07/13 12:09:56;;;;;;;12.68;5.92;;;;;;;34.26;39.34;100633.11;1803063;79;21192;-55
2021/07/13 12:13:10;;;;;;;7.25;5.22;;;;;;;34.30;38.98;100631.88;1784899;79;21699;-56
2021/07/13 12:16:31;;;;;;;11.53;5.40;;;;;;;34.32;38.72;100619.58;1770487;80;21222;-55
2021/07/13 12:19:38;;;;;;;11.90;5.62;;;;;;;34.31;38.94;100619.33;1797856;79;21293;-55
2021/07/13 12:22:47;;;;;;;6.60;5.00;;;;;;;34.31;39.24;100611.66;1803116;79;21239;-55
2021/07/13 12:25:52;;;;;;;10.08;5.03;;;;;;;34.33;38.57;100615.59;1786504;79;21205;-56
2021/07/13 12:29:15;;;;;;;6.17;4.60;;;;;;;34.32;39.09;100613.89;1803261;79;21208;-56
2021/07/13 12:32:30;;;;;;;7.15;4.80;;;;;;;34.31;39.00;100611.66;1803538;79;21386;-55
2021/07/13 12:35:37;;;;;;;;;;;;;;;34.27;37.23;100612.03;1806281;79;21351;-56
2021/07/13 12:38:45;;;;;;;8.65;4.60;;;;;;;34.25;38.29;100607.86;1804014;79;20229;-55
2021/07/13 12:41:52;;;;;;;13.22;5.03;;;;;;;34.24;38.36;100610.42;1802554;79;21374;-56
2021/07/13 12:45:03;;;;;;;9.70;4.50;;;;;;;34.27;38.50;100608.34;1800925;79;21252;-56
2021/07/13 12:48:12;;;;;;;7.17;4.95;;;;;;;34.30;38.52;100597.16;1802719;79;21342;-55
2021/07/13 12:51:22;;;;;;;8.83;5.12;;;;;;;34.31;39.13;100593.74;1776711;78;21420;-55
2021/07/13 12:54:29;;;;;;;7.33;4.78;;;;;;;34.33;38.83;100590.00;1745506;81;21359;-56
2021/07/13 12:57:41;;;;;;;7.03;4.90;;;;;;;34.33;37.63;100585.73;1770645;81;21216;-57
2021/07/13 13:00:54;;;;;;;5.80;4.78;;;;;;;34.32;37.80;100593.98;1770961;80;21206;-57
2021/07/13 13:04:02;;;;;;;7.42;4.22;;;;;;;34.33;38.41;100595.08;1800565;79;21347;-57
2021/07/13 13:07:13;;;;;;;12.15;5.20;;;;;;;34.30;38.63;100590.05;1800924;79;21252;-56
2021/07/13 13:10:20;;;;;;;8.43;4.55;;;;;;;34.29;39.27;100587.53;1780873;79;21206;-57
2021/07/13 13:13:45;;;;;;;6.67;4.65;;;;;;;34.31;39.28;100582.37;1695140;84;21227;-56
2021/07/13 13:16:52;;;;;;;10.35;4.20;;;;;;;34.31;39.27;100582.37;1705528;84;21248;-57
2021/07/13 13:20:01;;;;;;;7.58;4.40;;;;;;;34.28;39.01;100580.19;1745343;81;21209;-57
2021/07/13 13:23:15;;;;;;;6.67;3.80;;;;;;;34.23;39.36;100573.22;1754937;81;21266;-59
2021/07/13 13:26:22;;;;;;;9.23;4.10;;;;;;;34.14;37.65;100576.01;1738694;82;21707;-56
2021/07/13 13:29:27;;;;;;;9.65;3.85;;;;;;;34.10;37.53;100571.31;1737912;82;21215;-56
2021/07/13 13:32:36;;;;;;;10.35;3.72;;;;;;;34.10;37.71;100576.42;1738809;82;21429;-56
2021/07/13 13:36:03;;;;;;;7.90;3.00;;;;;;;34.09;37.38;100572.48;1738028;82;21365;-58
2021/07/13 13:39:14;;;;;;;8.58;3.30;;;;;;;34.05;36.73;100572.87;1770105;81;21729;-57
2021/07/13 13:42:11;;;;;;;7.60;3.25;;;;;;;34.02;36.41;100580.63;1770502;81;21324;-56
2021/07/13 13:45:20;;;;;;;7.78;3.20;;;;;;;33.95;35.57;100583.12;1770619;80;21785;-56
2021/07/13 13:48:27;;;;;;;9.05;3.50;;;;;;;33.87;35.06;100584.69;1745475;81;21228;-57
2021/07/13 13:51:37;;;;;;;5.00;3.37;;;;;;;33.83;34.53;100579.98;1747646;81;21239;-61
2021/07/13 13:54:51;;;;;;;13.03;3.62;;;;;;;33.83;34.54;100577.99;1857420;76;22266;-62
2021/07/13 13:57:59;;;;;;;7.37;3.20;;;;;;;33.79;35.37;100578.97;1715480;82;21228;-60
2021/07/13 14:01:06;;;;;;;7.50;3.70;;;;;;;33.76;36.35;100575.36;1788419;79;21367;-61
2021/07/13 14:04:13;;;;;;;5.22;3.12;;;;;;;33.76;36.01;100584.70;1771716;80;21189;-62
2021/07/13 14:07:23;;;;;;;4.83;3.25;;;;;;;33.74;35.94;100580.52;1771142;80;21382;-62
2021/07/13 14:10:29;;;;;;;6.08;3.10;;;;;;;33.71;35.04;100574.08;1786797;79;21330;-64
2021/07/13 14:13:35;;;;;;;38.48;5.97;;;;;;;33.65;35.35;100579.03;1794608;79;21185;-63
2021/07/13 14:16:42;;;;;;;7.30;3.02;;;;;;;33.64;35.50;100573.11;1803904;79;21165;-64
2021/07/13 14:19:50;;;;;;;5.25;3.02;;;;;;;33.62;35.17;100569.75;1803028;79;21197;-61
2021/07/13 14:22:57;;;;;;;5.08;2.85;;;;;;;33.62;35.78;100564.67;1780174;79;21197;-61
2021/07/13 14:26:04;;;;;;;8.58;2.95;;;;;;;33.62;35.67;100561.83;1779856;79;21189;-62
2021/07/13 14:29:11;;;;;;;5.60;2.85;;;;;;;33.60;36.20;100552.21;1770962;81;21354;-63